Time;durP1;ratioP1;P1;durP2;ratioP2;P2;SDS_P1;SDS_P2;PMS_P1;PMS_P2;Temp;Humidity;BMP_temperature;BMP_pressure;BME280_temperature;BME280_humidity;BME280_pressure;Samples;Min_cycle;Max_cycle;Signal;HPM_P1;HPM_P2
2022/10/04 00:00:46;;;;;;;;;;;;;;;12.31;82.72;102332.41;5006658;28;19917;-57
2022/10/04 00:03:16;;;;;;;;;;;;;;;12.30;82.80;102340.53;5004230;28;19918;-58
2022/10/04 00:05:47;;;;;;;;;;;;;;;12.29;82.76;102328.22;5008064;28;19971;-58
2022/10/04 00:08:35;;;;;;;;;;;;;;;12.28;82.51;102324.69;5003010;28;20393;-58
2022/10/04 00:11:12;;;;;;;;;;;;;;;12.28;82.75;102315.88;5009107;28;19921;-57
2022/10/04 00:13:38;;;;;;;;;;;;;;;12.26;82.58;102310.69;5002865;28;19928;-58
2022/10/04 00:16:04;;;;;;;;;;;;;;;12.24;82.66;102309.16;5005823;28;19925;-57
2022/10/04 00:18:31;;;;;;;;;;;;;;;12.25;82.64;102308.19;5009769;28;19917;-57
2022/10/04 00:20:59;;;;;;;;;;;;;;;12.25;82.84;102306.34;5011739;28;19968;-57
2022/10/04 00:23:25;;;;;;;;;;;;;;;12.23;82.80;102308.31;5010499;28;19917;-57
2022/10/04 00:25:54;;;;;;;;;;;;;;;12.24;82.77;102309.16;5011622;28;20406;-57
2022/10/04 00:28:19;;;;;;;;;;;;;;;12.25;83.09;102308.19;5005898;28;19968;-57
2022/10/04 00:31:05;;;;;;;;;;;;;;;12.24;82.95;102298.50;5011834;28;19983;-57
2022/10/04 00:33:34;;;;;;;;;;;;;;;12.24;83.14;102295.84;5008144;28;20345;-57
2022/10/04 00:35:59;;;;;;;;;;;;;;;12.24;83.31;102299.34;5008610;28;20300;-57
2022/10/04 00:38:26;;;;;;;;;;;;;;;12.23;83.40;102296.84;5010889;28;19918;-56
2022/10/04 00:40:55;;;;;;;;;;;;;;;12.25;83.12;102297.53;5010865;28;19924;-57
2022/10/04 00:43:40;;;;;;;;;;;;;;;12.26;83.15;102291.22;5010807;28;19921;-57
2022/10/04 00:46:09;;;;;;;;;;;;;;;12.26;83.19;102291.22;5008826;28;20647;-57
2022/10/04 00:48:52;;;;;;;;;;;;;;;12.26;83.11;102293.88;5010197;28;19960;-57
2022/10/04 00:51:17;;;;;;;;;;;;;;;12.24;83.22;102286.03;5011004;28;19925;-57
2022/10/04 00:53:58;;;;;;;;;;;;;;;12.23;83.50;102286.19;5009169;28;20451;-57
2022/10/04 00:56:40;;;;;;;;;;;;;;;12.23;83.15;102280.84;4995112;28;19918;-57
2022/10/04 00:59:25;;;;;;;;;;;;;;;12.22;83.46;102269.34;5009149;28;21244;-58
2022/10/04 01:01:53;;;;;;;;;;;;;;;12.21;83.65;102264.19;5010041;28;19964;-58
2022/10/04 01:04:36;;;;;;;;;;;;;;;12.19;83.29;102264.31;5007819;28;19924;-58
2022/10/04 01:07:03;;;;;;;;;;;;;;;12.18;83.25;102262.66;5009389;28;19918;-57
2022/10/04 01:09:31;;;;;;;;;;;;;;;12.18;83.49;102256.47;5004718;28;19918;-58
2022/10/04 01:12:03;;;;;;;;;;;;;;;12.16;83.28;102258.47;5008667;28;20019;-56
2022/10/04 01:14:33;;;;;;;;;;;;;;;12.14;83.22;102258.56;5009793;28;20385;-58
2022/10/04 01:16:59;;;;;;;;;;;;;;;12.12;83.29;102257.03;5009123;28;19933;-56
2022/10/04 01:19:24;;;;;;;;;;;;;;;12.11;83.39;102261.53;5007620;28;19917;-58
2022/10/04 01:22:08;;;;;;;;;;;;;;;12.08;83.33;102257.34;5010027;28;19913;-57
2022/10/04 01:24:34;;;;;;;;;;;;;;;12.07;83.63;102262.81;5006482;28;19918;-57
2022/10/04 01:27:00;;;;;;;;;;;;;;;12.06;83.36;102259.31;5005801;28;20297;-58
2022/10/04 01:29:27;;;;;;;;;;;;;;;12.05;83.29;102249.66;5008615;28;19923;-56
2022/10/04 01:31:53;;;;;;;;;;;;;;;12.05;83.59;102246.97;5004678;28;19928;-56
2022/10/04 01:34:21;;;;;;;;;;;;;;;12.04;83.57;102253.28;5008127;28;19918;-57
2022/10/04 01:36:47;;;;;;;;;;;;;;;12.04;83.63;102249.78;5009303;28;19957;-57
2022/10/04 01:39:17;;;;;;;;;;;;;;;12.02;83.56;102247.28;5004024;28;19979;-57
2022/10/04 01:41:48;;;;;;;;;;;;;;;12.03;83.47;102238.31;5004586;28;20020;-57
2022/10/04 01:44:23;;;;;;;;;;;;;;;12.04;83.83;102236.47;5008621;28;19963;-57
2022/10/04 01:46:48;;;;;;;;;;;;;;;12.03;83.71;102240.13;5002648;28;19925;-58
2022/10/04 01:49:17;;;;;;;;;;;;;;;12.02;83.41;102244.63;5006192;28;20372;-58
2022/10/04 01:51:48;;;;;;;;;;;;;;;12.00;83.41;102235.94;5004099;28;19922;-57
2022/10/04 01:54:18;;;;;;;;;;;;;;;12.00;83.51;102235.94;5004867;28;19928;-57
2022/10/04 01:56:51;;;;;;;;;;;;;;;11.99;83.55;102233.41;5004674;28;20297;-58
2022/10/04 01:59:22;;;;;;;;;;;;;;;11.97;83.95;102230.91;5008649;28;20408;-57
2022/10/04 02:02:01;;;;;;;;;;;;;;;11.96;83.50;102225.72;5007185;28;19917;-58
2022/10/04 02:04:28;;;;;;;;;;;;;;;11.94;83.55;102214.38;5006753;28;19933;-58
2022/10/04 02:06:55;;;;;;;;;;;;;;;11.91;83.63;102214.69;5008626;28;19929;-58
2022/10/04 02:09:25;;;;;;;;;;;;;;;11.90;83.72;102216.50;5008822;28;19929;-57
2022/10/04 02:11:51;;;;;;;;;;;;;;;11.88;83.81;102207.00;5007979;28;19929;-58
2022/10/04 02:14:19;;;;;;;;;;;;;;;11.84;83.70;102192.25;5008268;28;19926;-57
2022/10/04 02:16:46;;;;;;;;;;;;;;;11.79;83.81;102187.38;5008457;28;19914;-56
2022/10/04 02:19:13;;;;;;;;;;;;;;;11.75;84.07;102185.97;5008893;28;19917;-57
2022/10/04 02:21:38;;;;;;;;;;;;;;;11.73;83.94;102182.63;5006413;28;20016;-57
2022/10/04 02:24:05;;;;;;;;;;;;;;;11.69;84.14;102181.22;5005411;28;20009;-55
2022/10/04 02:26:31;;;;;;;;;;;;;;;11.67;84.19;102175.22;5006584;28;19917;-57
2022/10/04 02:28:56;;;;;;;;;;;;;;;11.64;84.40;102176.34;5008769;28;19996;-58
2022/10/04 02:34:06;;;;;;;;;;;;;;;11.58;84.80;102170.78;5006549;28;20416;-58
2022/10/04 02:36:33;;;;;;;;;;;;;;;11.55;84.39;102168.38;5007632;28;19917;-58
2022/10/04 02:39:01;;;;;;;;;;;;;;;11.52;84.73;102163.34;5005145;28;19921;-57
2022/10/04 02:41:30;;;;;;;;;;;;;;;11.47;84.75;102159.31;5007901;28;19921;-58
2022/10/04 02:44:13;;;;;;;;;;;;;;;11.43;84.53;102152.59;5006119;28;19972;-57
2022/10/04 02:46:51;;;;;;;;;;;;;;;11.42;84.70;102142.94;5002505;28;20293;-57
2022/10/04 02:49:27;;;;;;;;;;;;;;;11.41;84.72;102141.25;5005136;28;19925;-57
2022/10/04 02:52:02;;;;;;;;;;;;;;;11.38;84.93;102132.75;5003492;28;19933;-57
2022/10/04 02:54:36;;;;;;;;;;;;;;;11.36;84.79;102129.38;5006846;28;19929;-56
2022/10/04 02:57:01;;;;;;;;;;;;;;;11.35;84.77;102123.22;5003345;28;20007;-57
2022/10/04 02:59:28;;;;;;;;;;;;;;;11.34;84.70;102126.03;5004903;28;19957;-57
2022/10/04 03:01:53;;;;;;;;;;;;;;;11.32;84.64;102112.03;4998674;28;19921;-58
2022/10/04 03:04:45;;;;;;;;;;;;;;;11.32;84.50;102120.03;5007548;28;20023;-56
2022/10/04 03:07:10;;;;;;;;;;;;;;;11.31;84.67;102113.03;5008336;28;19921;-58
2022/10/04 03:09:36;;;;;;;;;;;;;;;11.28;84.41;102115.97;5008677;28;20434;-58
2022/10/04 03:12:03;;;;;;;;;;;;;;;11.27;84.60;102117.78;5004413;28;20028;-58
2022/10/04 03:14:30;;;;;;;;;;;;;;;11.26;84.47;102113.44;5007700;28;20020;-57
2022/10/04 03:16:56;;;;;;;;;;;;;;;11.24;84.42;102107.41;5014650;28;19913;-58
2022/10/04 03:19:23;;;;;;;;;;;;;;;11.24;84.63;102106.59;5006133;28;20381;-56
2022/10/04 03:21:51;;;;;;;;;;;;;;;11.22;84.49;102097.91;4997685;28;19917;-57
2022/10/04 03:24:22;;;;;;;;;;;;;;;11.18;84.36;102094.72;5007246;28;20312;-57
2022/10/04 03:26:49;;;;;;;;;;;;;;;11.15;84.43;102087.03;5007120;28;19918;-57
2022/10/04 03:29:16;;;;;;;;;;;;;;;11.09;84.08;102088.44;5005880;28;20716;-57
2022/10/04 03:31:44;;;;;;;;;;;;;;;11.06;84.27;102091.38;5008200;28;19968;-58
2022/10/04 03:34:14;;;;;;;;;;;;;;;11.02;84.49;102105.13;5000268;28;19952;-58
2022/10/04 03:36:39;;;;;;;;;;;;;;;10.98;84.32;102099.22;5007237;28;19918;-57
2022/10/04 03:39:06;;;;;;;;;;;;;;;10.95;84.23;102098.66;5007332;28;19932;-58
2022/10/04 03:41:33;;;;;;;;;;;;;;;10.92;84.34;102090.97;5007660;28;20293;-57
2022/10/04 03:43:59;;;;;;;;;;;;;;;10.91;84.49;102089.31;5003441;28;19987;-58
2022/10/04 03:46:27;;;;;;;;;;;;;;;10.86;84.94;102087.91;5000035;28;19956;-57
2022/10/04 03:48:53;;;;;;;;;;;;;;;10.84;84.76;102083.72;5004767;28;20405;-57
2022/10/04 03:51:23;;;;;;;;;;;;;;;10.82;84.60;102077.72;5005849;28;19930;-57
2022/10/04 03:53:51;;;;;;;;;;;;;;;10.79;84.52;102075.34;5003630;28;19918;-58
2022/10/04 03:56:16;;;;;;;;;;;;;;;10.76;84.43;102068.50;5002972;28;19926;-57
2022/10/04 03:58:41;;;;;;;;;;;;;;;10.73;84.80;102065.28;5007016;28;19918;-57
2022/10/04 04:01:19;;;;;;;;;;;;;;;10.71;84.47;102077.88;5005800;28;19921;-57
2022/10/04 04:03:56;;;;;;;;;;;;;;;10.67;84.78;102065.81;5002280;28;19914;-57
2022/10/04 04:06:22;;;;;;;;;;;;;;;10.64;84.93;102072.25;5003800;28;19918;-57
2022/10/04 04:08:50;;;;;;;;;;;;;;;10.62;84.98;102070.72;5006543;28;20024;-57
2022/10/04 04:11:20;;;;;;;;;;;;;;;10.58;84.94;102075.50;5002537;28;19976;-57
2022/10/04 04:13:49;;;;;;;;;;;;;;;10.57;84.55;102073.81;5006560;28;19924;-58
2022/10/04 04:16:15;;;;;;;;;;;;;;;10.56;84.96;102072.13;5008032;28;19921;-57
2022/10/04 04:18:42;;;;;;;;;;;;;;;10.55;85.12;102075.78;5007057;28;20280;-57
2022/10/04 04:21:07;;;;;;;;;;;;;;;10.53;85.11;102067.94;4998840;28;19917;-56
2022/10/04 04:23:33;;;;;;;;;;;;;;;10.49;85.16;102063.06;5004563;28;20016;-57
2022/10/04 04:26:11;;;;;;;;;;;;;;;10.43;85.57;102066.28;5007598;28;19917;-58
2022/10/04 04:28:41;;;;;;;;;;;;;;;10.36;85.65;102065.13;5008279;28;19914;-57
2022/10/04 04:31:06;;;;;;;;;;;;;;;10.34;85.55;102070.59;5002857;28;19983;-58
2022/10/04 04:33:35;;;;;;;;;;;;;;;10.35;85.66;102071.41;5007033;28;19921;-57
2022/10/04 04:36:04;;;;;;;;;;;;;;;10.34;85.34;102059.97;5007593;28;19921;-57
2022/10/04 04:38:30;;;;;;;;;;;;;;;10.34;85.20;102057.31;5006064;28;20356;-57
2022/10/04 04:40:56;;;;;;;;;;;;;;;10.35;85.29;102063.47;5006800;28;20345;-57
2022/10/04 04:43:24;;;;;;;;;;;;;;;10.34;85.04;102061.78;5003644;28;19960;-58
2022/10/04 04:45:50;;;;;;;;;;;;;;;10.33;85.55;102058.28;5006833;28;20024;-58
2022/10/04 04:48:16;;;;;;;;;;;;;;;10.32;85.49;102061.09;5007615;28;20379;-58
2022/10/04 04:50:46;;;;;;;;;;;;;;;10.29;85.83;102056.88;5004081;28;19918;-57
2022/10/04 04:53:16;;;;;;;;;;;;;;;10.26;86.11;102051.88;5005462;28;19957;-58
2022/10/04 04:55:43;;;;;;;;;;;;;;;10.23;86.30;102050.31;5000716;28;20008;-58
2022/10/04 04:58:12;;;;;;;;;;;;;;;10.20;86.21;102053.25;5004627;28;19925;-58
2022/10/04 05:00:38;;;;;;;;;;;;;;;10.20;86.45;102050.59;5006759;28;19951;-58
2022/10/04 05:03:05;;;;;;;;;;;;;;;10.20;86.38;102055.03;5007636;28;19918;-57
2022/10/04 05:05:32;;;;;;;;;;;;;;;10.18;86.96;102057.00;5010582;28;19918;-57
2022/10/04 05:08:10;;;;;;;;;;;;;;;10.10;87.36;102055.00;5010128;28;19924;-57
2022/10/04 05:10:37;;;;;;;;;;;;;;;9.98;87.46;102045.50;5010878;28;19918;-58
2022/10/04 05:13:03;;;;;;;;;;;;;;;9.94;87.77;102049.41;5004820;28;20496;-57
2022/10/04 05:15:32;;;;;;;;;;;;;;;9.83;87.94;102044.19;5008354;28;19928;-58
2022/10/04 05:17:58;;;;;;;;;;;;;;;9.76;88.28;102043.06;5011306;28;19913;-57
2022/10/04 05:20:24;;;;;;;;;;;;;;;9.75;88.00;102044.06;5010687;28;20016;-57
2022/10/04 05:22:50;;;;;;;;;;;;;;;9.76;88.35;102045.72;5009966;28;19971;-54
2022/10/04 05:25:28;;;;;;;;;;;;;;;9.75;88.27;102049.34;5011420;28;19918;-56
2022/10/04 05:27:54;;;;;;;;;;;;;;;9.72;88.57;102060.25;5010398;28;20442;-56
2022/10/04 05:30:25;;;;;;;;;;;;;;;9.71;88.58;102064.72;5009984;28;20023;-56
2022/10/04 05:32:59;;;;;;;;;;;;;;;9.71;88.68;102063.88;5008162;28;19929;-58
2022/10/04 05:35:25;;;;;;;;;;;;;;;9.70;88.38;102064.84;5009851;28;19917;-57
2022/10/04 05:37:54;;;;;;;;;;;;;;;9.71;88.57;102063.88;5010951;28;20392;-58
2022/10/04 05:40:40;;;;;;;;;;;;;;;9.71;88.99;102069.16;5008910;28;20695;-58
2022/10/04 05:43:25;;;;;;;;;;;;;;;9.73;88.79;102065.41;5007597;28;19913;-57
2022/10/04 05:46:09;;;;;;;;;;;;;;;9.73;88.70;102064.56;5008887;28;19924;-57
2022/10/04 05:48:35;;;;;;;;;;;;;;;9.74;88.94;102064.44;5009174;28;19936;-56
2022/10/04 05:51:00;;;;;;;;;;;;;;;9.78;88.58;102072.97;5005618;28;20319;-57
2022/10/04 05:53:28;;;;;;;;;;;;;;;9.81;88.82;102075.34;5008558;28;19924;-58
2022/10/04 05:56:00;;;;;;;;;;;;;;;9.84;88.24;102075.94;5011098;28;19917;-57
2022/10/04 05:58:36;;;;;;;;;;;;;;;9.87;88.49;102075.66;5008269;28;19913;-57
2022/10/04 06:01:26;;;;;;;;;;;;;;;9.82;88.49;102064.59;5006034;28;20020;-56
2022/10/04 06:03:54;;;;;;;;;;;;;;;9.91;88.51;102074.41;5006409;28;19918;-57
2022/10/04 06:06:19;;;;;;;;;;;;;;;9.94;88.29;102073.28;5009555;28;19917;-57
2022/10/04 06:09:02;;;;;;;;;;;;;;;9.96;88.19;102068.69;5008976;28;20024;-57
2022/10/04 06:11:41;;;;;;;;;;;;;;;9.97;87.85;102074.84;5004292;28;19925;-57
2022/10/04 06:14:39;;;;;;;;;;;;;;;9.99;87.83;102079.03;5009579;28;19968;-57
2022/10/04 06:17:28;;;;;;;;;;;;;;;10.02;88.05;102083.22;5015440;28;20277;-57
2022/10/04 06:19:53;;;;;;;;;;;;;;;10.05;88.05;102081.13;5007969;28;20309;-57
2022/10/04 06:22:19;;;;;;;;;;;;;;;10.06;88.19;102069.53;5005172;28;19917;-57
2022/10/04 06:24:50;;;;;;;;;;;;;;;10.05;87.93;102065.22;5004804;28;19917;-55
2022/10/04 06:27:25;;;;;;;;;;;;;;;10.06;88.00;102064.22;5007951;28;19921;-58
2022/10/04 06:30:04;;;;;;;;;;;;;;;10.06;87.75;102060.72;5007845;28;19944;-57
2022/10/04 06:32:35;;;;;;;;;;;;;;;10.06;87.81;102061.56;5004764;28;19932;-58
2022/10/04 06:35:19;;;;;;;;;;;;;;;10.07;87.90;102068.56;5009427;28;19925;-58
2022/10/04 06:38:13;;;;;;;;;;;;;;;10.07;87.79;102068.56;5007205;28;19913;-58
2022/10/04 06:40:38;;;;;;;;;;;;;;;10.08;87.47;102069.41;5003560;28;19968;-57
2022/10/04 06:43:30;;;;;;;;;;;;;;;10.08;87.65;102064.94;5008331;28;19922;-58
2022/10/04 06:46:16;;;;;;;;;;;;;;;10.08;87.47;102054.31;5007700;28;19967;-58
2022/10/04 06:49:16;;;;;;;;;;;;;;;10.10;87.78;102057.66;5001875;28;19914;-58
2022/10/04 06:52:02;;;;;;;;;;;;;;;10.10;87.71;102060.31;5018266;28;20266;-58
2022/10/04 06:54:43;;;;;;;;;;;;;;;10.10;87.83;102055.00;5001339;28;20289;-58
2022/10/04 06:57:18;;;;;;;;;;;;;;;10.10;87.92;102057.66;5006232;28;19937;-58
2022/10/04 07:00:01;;;;;;;;;;;;;;;10.12;87.65;102063.72;5003596;28;19956;-56
2022/10/04 07:02:30;;;;;;;;;;;;;;;10.14;87.77;102058.25;5008207;28;19917;-57
2022/10/04 07:04:59;;;;;;;;;;;;;;;10.15;88.01;102050.16;5004230;28;20329;-57
2022/10/04 07:07:34;;;;;;;;;;;;;;;10.16;87.99;102051.00;5006985;28;19923;-57
2022/10/04 07:09:59;;;;;;;;;;;;;;;10.17;88.21;102048.19;5007421;28;20031;-57
2022/10/04 07:12:24;;;;;;;;;;;;;;;10.15;88.20;102041.34;5006191;28;20000;-58
2022/10/04 07:14:51;;;;;;;;;;;;;;;10.14;88.33;102048.47;5008728;28;19922;-56
2022/10/04 07:17:21;;;;;;;;;;;;;;;10.15;88.03;102044.84;5002261;28;19925;-57
2022/10/04 07:19:48;;;;;;;;;;;;;;;10.18;88.35;102041.91;5002524;28;19987;-53
2022/10/04 07:22:25;;;;;;;;;;;;;;;10.19;88.69;102045.41;5003387;28;19920;-57
2022/10/04 07:24:50;;;;;;;;;;;;;;;10.15;89.17;102044.84;5008908;28;19917;-57
2022/10/04 07:27:18;;;;;;;;;;;;;;;10.11;89.48;102047.88;5005363;28;19918;-58
2022/10/04 07:29:45;;;;;;;;;;;;;;;10.08;89.30;102048.16;5005184;28;19924;-57
2022/10/04 07:32:20;;;;;;;;;;;;;;;10.05;89.91;102037.81;5005371;28;19928;-57
2022/10/04 07:35:01;;;;;;;;;;;;;;;10.07;89.79;102042.00;5006114;28;19917;-57
2022/10/04 07:37:28;;;;;;;;;;;;;;;10.11;90.33;102047.88;5004586;28;19917;-57
2022/10/04 07:40:07;;;;;;;;;;;;;;;10.14;90.24;102059.09;5002216;28;19932;-56
2022/10/04 07:42:41;;;;;;;;;;;;;;;10.19;90.59;102053.38;4999665;28;19921;-57
2022/10/04 07:45:22;;;;;;;;;;;;;;;10.23;90.75;102063.59;5007775;28;19917;-57
2022/10/04 07:47:47;;;;;;;;;;;;;;;10.32;90.76;102061.09;5009524;28;19917;-57
2022/10/04 07:50:19;;;;;;;;;;;;;;;10.40;90.70;102063.88;5006486;28;19924;-57
2022/10/04 07:52:56;;;;;;;;;;;;;;;10.48;90.73;102050.75;5004904;28;19984;-57
2022/10/04 07:55:36;;;;;;;;;;;;;;;10.57;90.75;102047.25;5005382;28;19918;-57
2022/10/04 07:58:20;;;;;;;;;;;;;;;10.66;90.54;102054.38;5003472;28;19972;-56
2022/10/04 08:00:56;;;;;;;;;;;;;;;10.76;90.24;102052.56;5007796;28;20396;-57
2022/10/04 08:03:24;;;;;;;;;;;;;;;10.85;90.44;102053.50;5004523;28;19924;-57
2022/10/04 08:05:53;;;;;;;;;;;;;;;10.93;89.89;102053.63;5008854;28;20404;-57
2022/10/04 08:08:30;;;;;;;;;;;;;;;11.01;89.83;102050.28;5002891;28;19914;-55
2022/10/04 08:11:11;;;;;;;;;;;;;;;11.09;89.16;102045.06;5005482;28;19959;-56
2022/10/04 08:13:55;;;;;;;;;;;;;;;11.15;89.47;102040.00;5002888;28;19964;-57
2022/10/04 08:16:31;;;;;;;;;;;;;;;11.26;89.33;102052.28;5003199;28;19950;-57
2022/10/04 08:19:05;;;;;;;;;;;;;;;11.33;88.56;102050.72;5009287;28;20025;-57
2022/10/04 08:21:36;;;;;;;;;;;;;;;11.40;88.36;102043.00;5004581;28;19913;-58
2022/10/04 08:24:10;;;;;;;;;;;;;;;11.48;87.68;102041.28;5010984;28;19922;-57
2022/10/04 08:26:38;;;;;;;;;;;;;;;11.57;87.43;102038.72;5002301;28;19997;-57
2022/10/04 08:29:43;;;;;;;;;;;;;;;11.65;87.25;102038.81;5007437;28;19960;-57
2022/10/04 08:32:22;;;;;;;;;;;;;;;11.77;86.53;102056.25;5007637;28;19996;-57
2022/10/04 08:35:02;;;;;;;;;;;;;;;11.84;85.98;102046.72;5005320;28;19917;-57
2022/10/04 08:37:30;;;;;;;;;;;;;;;11.91;85.96;102052.31;5010098;28;19976;-56
2022/10/04 08:39:58;;;;;;;;;;;;;;;11.97;86.07;102044.53;5011204;28;20694;-57
2022/10/04 08:42:49;;;;;;;;;;;;;;;12.04;86.34;102058.91;5005906;28;19918;-57
2022/10/04 08:45:33;;;;;;;;;;;;;;;12.13;85.66;102051.00;5005453;28;19917;-57
2022/10/04 08:48:23;;;;;;;;;;;;;;;12.19;85.23;102050.44;5005238;28;19922;-57
2022/10/04 08:51:09;;;;;;;;;;;;;;;12.26;85.37;102051.50;5001665;28;19949;-57
2022/10/04 08:53:51;;;;;;;;;;;;;;;12.33;84.70;102050.72;5010689;28;20456;-57
2022/10/04 08:56:31;;;;;;;;;;;;;;;12.43;84.45;102042.63;5010474;28;20357;-57
2022/10/04 08:59:07;;;;;;;;;;;;;;;12.53;84.31;102048.75;5011925;28;19920;-57
2022/10/04 09:01:56;;;;;;;;;;;;;;;12.62;84.35;102047.81;5009855;28;19921;-58
2022/10/04 09:05:00;;;;;;;;;;;;;;;12.67;83.04;102045.50;5010873;28;19913;-57
2022/10/04 09:07:50;;;;;;;;;;;;;;;12.76;82.97;102054.44;4988904;28;20333;-58
2022/10/04 09:10:33;;;;;;;;;;;;;;;12.89;83.13;102054.00;4987499;28;19929;-57
2022/10/04 09:13:14;;;;;;;;;;;;;;;12.97;82.95;102051.41;4998624;28;19957;-55
2022/10/04 09:15:55;;;;;;;;;;;;;;;13.07;81.79;102051.31;5012083;28;19917;-56
2022/10/04 09:18:22;;;;;;;;;;;;;;;13.14;80.81;102053.19;5010848;28;20504;-54
2022/10/04 09:20:50;;;;;;;;;;;;;;;13.24;80.61;102048.59;5007363;28;20012;-58
2022/10/04 09:23:21;;;;;;;;;;;;;;;13.31;79.50;102043.50;5006996;28;19918;-58
2022/10/04 09:26:00;;;;;;;;;;;;;;;13.38;79.59;102039.19;5004549;28;19917;-58
2022/10/04 09:28:26;;;;;;;;;;;;;;;13.51;79.48;102046.72;5011123;28;19917;-57
2022/10/04 09:30:51;;;;;;;;;;;;;;;13.61;79.23;102039.44;5008376;28;19964;-58
2022/10/04 09:33:34;;;;;;;;;;;;;;;13.68;78.82;102037.81;5009501;28;19925;-58
2022/10/04 09:36:14;;;;;;;;;;;;;;;13.80;78.76;102041.84;5009936;28;20455;-58
2022/10/04 09:38:49;;;;;;;;;;;;;;;13.89;78.39;102022.19;5009022;28;19913;-58
2022/10/04 09:41:33;;;;;;;;;;;;;;;14.01;77.86;102019.19;5009579;28;19961;-57
2022/10/04 09:44:34;;;;;;;;;;;;;;;14.02;77.30;102020.88;4999114;28;19921;-57
2022/10/04 09:47:21;;;;;;;;;;;;;;;14.10;77.32;102020.88;5004463;28;20401;-56
2022/10/04 09:50:06;;;;;;;;;;;;;;;14.19;77.55;102023.41;5004751;28;19922;-57
2022/10/04 09:52:38;;;;;;;;;;;;;;;14.21;77.04;102029.41;5003598;28;20439;-54
2022/10/04 09:55:24;;;;;;;;;;;;;;;14.27;77.52;102028.75;5005176;28;19917;-56
2022/10/04 09:58:08;;;;;;;;;;;;;;;14.35;77.16;102037.78;5003235;28;20011;-56
2022/10/04 10:00:55;;;;;;;;;;;;;;;14.40;77.17;102025.56;5018233;28;19924;-54
2022/10/04 10:03:40;;;;;;;;;;;;;;;14.38;76.06;102018.72;5006493;28;19921;-64
2022/10/04 10:06:18;;;;;;;;;;;;;;;14.47;75.68;102031.16;5005175;28;20408;-64
2022/10/04 10:08:54;;;;;;;;;;;;;;;14.49;75.31;102027.31;5008351;28;19921;-65
2022/10/04 10:14:25;;;;;;;;;;;;;;;14.54;74.99;102016.09;5005572;28;20012;-66
2022/10/04 10:17:00;;;;;;;;;;;;;;;14.59;75.17;102019.09;5003378;28;19917;-65
2022/10/04 10:19:38;;;;;;;;;;;;;;;14.67;74.83;102012.91;5003667;28;20004;-67
2022/10/04 10:22:27;;;;;;;;;;;;;;;14.71;74.65;102006.22;5003543;28;19921;-64
2022/10/04 10:25:06;;;;;;;;;;;;;;;14.75;74.26;102007.56;5006657;28;20419;-65
2022/10/04 10:27:51;;;;;;;;;;;;;;;14.80;74.08;102007.91;5002538;28;20071;-65
2022/10/04 10:30:44;;;;;;;;;;;;;;;14.93;74.27;102010.88;5005233;28;20424;-65
2022/10/04 10:33:12;;;;;;;;;;;;;;;14.99;73.23;102007.50;5008297;28;19929;-66
2022/10/04 10:35:44;;;;;;;;;;;;;;;15.03;73.33;102003.47;5007043;28;19921;-64
2022/10/04 10:38:28;;;;;;;;;;;;;;;15.09;72.66;102005.50;5011084;28;20012;-64
2022/10/04 10:41:18;;;;;;;;;;;;;;;15.13;73.03;102005.97;5008321;28;19952;-64
2022/10/04 10:44:25;;;;;;;;;;;;;;;15.23;73.12;102013.78;5004178;28;20004;-66
2022/10/04 10:47:17;;;;;;;;;;;;;;;15.31;72.82;102011.09;5003023;28;19976;-65
2022/10/04 10:49:57;;;;;;;;;;;;;;;15.46;72.81;102025.44;5005000;28;19933;-65
2022/10/04 10:52:36;;;;;;;;;;;;;;;15.61;72.25;102030.91;5001034;28;19968;-65
2022/10/04 10:55:21;;;;;;;;;;;;;;;15.65;71.17;102030.41;5007976;28;19918;-65
2022/10/04 10:57:55;;;;;;;;;;;;;;;15.63;70.54;102013.69;5006000;28;20007;-66
2022/10/04 11:00:34;;;;;;;;;;;;;;;15.59;70.42;102003.47;5007471;28;19924;-65
2022/10/04 11:03:00;;;;;;;;;;;;;;;15.58;70.01;102004.44;5003878;28;19924;-65
2022/10/04 11:05:31;;;;;;;;;;;;;;;15.52;69.52;102005.97;5008684;28;19917;-64
2022/10/04 11:08:03;;;;;;;;;;;;;;;15.54;69.83;102003.97;5003227;28;20005;-65
2022/10/04 11:10:47;;;;;;;;;;;;;;;15.62;69.29;101995.94;5005089;28;19920;-65
2022/10/04 11:13:38;;;;;;;;;;;;;;;15.67;68.55;101996.25;5005732;28;19954;-65
2022/10/04 11:16:09;;;;;;;;;;;;;;;15.78;69.00;101985.13;5006338;28;19971;-65
2022/10/04 11:18:54;;;;;;;;;;;;;;;15.93;69.07;101987.88;5004254;28;19960;-65
2022/10/04 11:21:32;;;;;;;;;;;;;;;16.02;68.24;101981.47;5006415;28;19967;-65
2022/10/04 11:23:57;;;;;;;;;;;;;;;16.14;67.22;101975.66;5006302;28;19913;-66
2022/10/04 11:26:36;;;;;;;;;;;;;;;16.23;67.96;101975.44;5000083;28;20020;-66
2022/10/04 11:29:25;;;;;;;;;;;;;;;16.34;67.77;101966.13;5007757;28;20003;-64
2022/10/04 11:31:59;;;;;;;;;;;;;;;16.47;67.15;101974.38;5002078;28;19983;-64
2022/10/04 11:34:24;;;;;;;;;;;;;;;16.48;66.60;101962.66;5006326;28;20004;-65
2022/10/04 11:36:56;;;;;;;;;;;;;;;16.56;66.38;101962.59;5008188;28;20004;-66
2022/10/04 11:39:21;;;;;;;;;;;;;;;16.77;66.81;101959.22;5001552;28;20393;-65
2022/10/04 11:41:55;;;;;;;;;;;;;;;16.85;65.86;101958.28;5008266;28;20011;-65
2022/10/04 11:44:30;;;;;;;;;;;;;;;16.90;65.88;101946.00;5006688;28;19940;-65
2022/10/04 11:47:01;;;;;;;;;;;;;;;17.00;65.27;101943.00;5005338;28;19936;-64
2022/10/04 11:49:49;;;;;;;;;;;;;;;17.02;64.85;101939.13;5003841;28;20305;-64
2022/10/04 11:52:28;;;;;;;;;;;;;;;17.02;64.66;101935.59;5005551;28;19922;-60
2022/10/04 11:55:08;;;;;;;;;;;;;;;17.09;65.62;101938.41;5009337;28;19917;-63
2022/10/04 11:57:52;;;;;;;;;;;;;;;17.15;64.99;101940.34;5008130;28;20016;-66
2022/10/04 12:00:21;;;;;;;;;;;;;;;17.11;64.05;101936.34;5006943;28;19918;-63
2022/10/04 12:03:08;;;;;;;;;;;;;;;17.13;63.92;101953.94;5002933;28;20012;-65
2022/10/04 12:05:39;;;;;;;;;;;;;;;17.07;63.58;101949.31;5008855;28;19918;-64
2022/10/04 12:08:19;;;;;;;;;;;;;;;17.05;62.90;101951.34;5009541;28;19917;-62
2022/10/04 12:10:49;;;;;;;;;;;;;;;16.97;63.43;101948.75;5012635;28;19918;-65
2022/10/04 12:13:26;;;;;;;;;;;;;;;16.91;63.26;101944.97;5010330;28;19933;-65
2022/10/04 12:15:51;;;;;;;;;;;;;;;16.85;63.35;101939.50;5008938;28;19924;-65
2022/10/04 12:18:35;;;;;;;;;;;;;;;16.82;64.29;101943.41;5012434;28;19917;-64
2022/10/04 12:21:14;;;;;;;;;;;;;;;16.84;64.62;101932.47;5009510;28;19914;-64
2022/10/04 12:23:52;;;;;;;;;;;;;;;16.87;64.60;101926.75;5009687;28;19921;-65
2022/10/04 12:26:36;;;;;;;;;;;;;;;16.98;65.00;101929.78;5013015;28;19913;-64
2022/10/04 12:29:19;;;;;;;;;;;;;;;17.17;64.53;101936.44;5010939;28;19924;-64
2022/10/04 12:31:48;;;;;;;;;;;;;;;17.30;62.76;101933.06;5006868;28;19917;-66
2022/10/04 12:34:23;;;;;;;;;;;;;;;17.37;62.31;101925.94;5007066;28;20381;-64
2022/10/04 12:36:48;;;;;;;;;;;;;;;17.44;61.20;101916.13;5010793;28;20441;-64
2022/10/04 12:39:27;;;;;;;;;;;;;;;17.51;61.29;101914.31;5013363;28;20039;-66
2022/10/04 12:42:10;;;;;;;;;;;;;;;17.65;60.35;101915.31;5010174;28;19917;-66
2022/10/04 12:44:45;;;;;;;;;;;;;;;17.75;60.24;101909.66;5012789;28;20022;-66
2022/10/04 12:47:22;;;;;;;;;;;;;;;17.86;60.35;101904.59;5007686;28;19914;-65
2022/10/04 12:50:01;;;;;;;;;;;;;;;17.86;59.32;101904.59;5008348;28;19941;-64
2022/10/04 12:52:29;;;;;;;;;;;;;;;17.91;60.31;101906.69;5008194;28;19961;-66
2022/10/04 12:55:08;;;;;;;;;;;;;;;18.00;59.94;101892.09;5010468;28;19925;-64
2022/10/04 12:57:52;;;;;;;;;;;;;;;18.08;58.41;101896.50;5005696;28;20385;-64
2022/10/04 13:00:21;;;;;;;;;;;;;;;18.14;58.84;101891.19;5012219;28;19929;-66
2022/10/04 13:03:06;;;;;;;;;;;;;;;18.35;58.07;101887.63;5005547;28;19917;-66
2022/10/04 13:05:57;;;;;;;;;;;;;;;18.44;56.80;101893.69;5009741;28;19918;-67
2022/10/04 13:08:33;;;;;;;;;;;;;;;18.50;56.71;101898.25;5011230;28;20008;-66
2022/10/04 13:11:07;;;;;;;;;;;;;;;18.59;56.07;101891.72;5008677;28;19913;-66
2022/10/04 13:13:39;;;;;;;;;;;;;;;18.57;55.97;101886.53;5018876;28;20557;-65
2022/10/04 13:16:21;;;;;;;;;;;;;;;18.58;55.63;101885.50;5010268;28;19920;-63
2022/10/04 13:18:58;;;;;;;;;;;;;;;18.69;55.41;101886.00;5009031;28;19921;-60